sensor_id;sensor_type;location;lat;lon;timestamp;temperature;humidity
30097;DHT22;16915;51.466;3.610;2022-07-17T00:01:32;15.60;99.90
30097;DHT22;16915;51.466;3.610;2022-07-17T00:03:57;15.60;99.90
30097;DHT22;16915;51.466;3.610;2022-07-17T00:06:23;15.50;99.90
30097;DHT22;16915;51.466;3.610;2022-07-17T00:08:49;15.60;99.90
30097;DHT22;16915;51.466;3.610;2022-07-17T00:11:14;15.60;99.90
30097;DHT22;16915;51.466;3.610;2022-07-17T00:13:40;15.50;99.90
30097;DHT22;16915;51.466;3.610;2022-07-17T00:16:06;15.50;99.90
30097;DHT22;16915;51.466;3.610;2022-07-17T00:18:32;15.50;99.90
30097;DHT22;16915;51.466;3.610;2022-07-17T00:20:58;15.40;99.90
30097;DHT22;16915;51.466;3.610;2022-07-17T00:23:23;15.40;99.90
30097;DHT22;16915;51.466;3.610;2022-07-17T00:25:49;15.40;99.90
30097;DHT22;16915;51.466;3.610;2022-07-17T00:28:15;15.30;99.90
30097;DHT22;16915;51.466;3.610;2022-07-17T00:30:41;15.30;99.90
30097;DHT22;16915;51.466;3.610;2022-07-17T00:33:06;15.20;99.90
30097;DHT22;16915;51.466;3.610;2022-07-17T00:35:34;15.30;99.90
30097;DHT22;16915;51.466;3.610;2022-07-17T00:38:03;15.20;99.90
30097;DHT22;16915;51.466;3.610;2022-07-17T00:40:29;15.20;99.90
30097;DHT22;16915;51.466;3.610;2022-07-17T00:42:55;15.20;99.90
30097;DHT22;16915;51.466;3.610;2022-07-17T00:45:23;15.20;99.90
30097;DHT22;16915;51.466;3.610;2022-07-17T00:47:56;15.20;99.90
30097;DHT22;16915;51.466;3.610;2022-07-17T00:50:38;15.10;99.90
30097;DHT22;16915;51.466;3.610;2022-07-17T00:53:08;15.10;99.90
30097;DHT22;16915;51.466;3.610;2022-07-17T00:55:36;15.00;99.90
30097;DHT22;16915;51.466;3.610;2022-07-17T00:58:26;15.00;99.90
30097;DHT22;16915;51.466;3.610;2022-07-17T01:00:58;15.00;99.90
30097;DHT22;16915;51.466;3.610;2022-07-17T01:03:44;15.00;99.90
30097;DHT22;16915;51.466;3.610;2022-07-17T01:06:16;15.00;99.90
30097;DHT22;16915;51.466;3.610;2022-07-17T01:09:25;14.90;99.90
30097;DHT22;16915;51.466;3.610;2022-07-17T01:11:52;14.90;99.90
30097;DHT22;16915;51.466;3.610;2022-07-17T01:14:32;14.90;99.90
30097;DHT22;16915;51.466;3.610;2022-07-17T01:17:02;14.80;99.90
30097;DHT22;16915;51.466;3.610;2022-07-17T01:19:29;14.80;99.90
30097;DHT22;16915;51.466;3.610;2022-07-17T01:21:59;14.80;99.90
30097;DHT22;16915;51.466;3.610;2022-07-17T01:24:32;14.80;99.90
30097;DHT22;16915;51.466;3.610;2022-07-17T01:27:00;14.80;99.90
30097;DHT22;16915;51.466;3.610;2022-07-17T01:29:39;14.70;99.90
30097;DHT22;16915;51.466;3.610;2022-07-17T01:32:12;14.70;99.90
30097;DHT22;16915;51.466;3.610;2022-07-17T01:34:52;14.70;99.90
30097;DHT22;16915;51.466;3.610;2022-07-17T01:37:20;14.60;99.90
30097;DHT22;16915;51.466;3.610;2022-07-17T01:40:07;14.60;99.90
30097;DHT22;16915;51.466;3.610;2022-07-17T01:42:35;14.50;99.90
30097;DHT22;16915;51.466;3.610;2022-07-17T01:45:07;14.50;99.90
30097;DHT22;16915;51.466;3.610;2022-07-17T01:47:34;14.50;99.90
30097;DHT22;16915;51.466;3.610;2022-07-17T01:50:01;14.40;99.90
30097;DHT22;16915;51.466;3.610;2022-07-17T01:52:29;14.40;99.90
30097;DHT22;16915;51.466;3.610;2022-07-17T01:55:00;14.40;99.90
30097;DHT22;16915;51.466;3.610;2022-07-17T01:57:27;14.40;99.90
30097;DHT22;16915;51.466;3.610;2022-07-17T01:59:57;14.30;99.90
30097;DHT22;16915;51.466;3.610;2022-07-17T02:02:29;14.30;99.90
30097;DHT22;16915;51.466;3.610;2022-07-17T02:04:55;14.30;99.90
30097;DHT22;16915;51.466;3.610;2022-07-17T02:07:23;14.30;99.90
30097;DHT22;16915;51.466;3.610;2022-07-17T02:09:56;14.30;99.90
30097;DHT22;16915;51.466;3.610;2022-07-17T02:12:23;14.30;99.90
30097;DHT22;16915;51.466;3.610;2022-07-17T02:14:51;14.20;99.90
30097;DHT22;16915;51.466;3.610;2022-07-17T02:17:19;14.20;99.90
30097;DHT22;16915;51.466;3.610;2022-07-17T02:19:47;14.30;99.90
30097;DHT22;16915;51.466;3.610;2022-07-17T02:22:16;14.20;99.90
30097;DHT22;16915;51.466;3.610;2022-07-17T02:24:43;14.20;99.90
30097;DHT22;16915;51.466;3.610;2022-07-17T02:27:08;14.20;99.90
30097;DHT22;16915;51.466;3.610;2022-07-17T02:29:34;14.20;99.90
30097;DHT22;16915;51.466;3.610;2022-07-17T02:32:01;14.10;99.90
30097;DHT22;16915;51.466;3.610;2022-07-17T02:34:33;14.10;99.90
30097;DHT22;16915;51.466;3.610;2022-07-17T02:37:00;14.10;99.90
30097;DHT22;16915;51.466;3.610;2022-07-17T02:39:26;14.10;99.90
30097;DHT22;16915;51.466;3.610;2022-07-17T02:41:53;14.10;99.90
30097;DHT22;16915;51.466;3.610;2022-07-17T02:44:19;14.00;99.90
30097;DHT22;16915;51.466;3.610;2022-07-17T02:46:54;14.00;99.90
30097;DHT22;16915;51.466;3.610;2022-07-17T02:49:21;14.00;99.90
30097;DHT22;16915;51.466;3.610;2022-07-17T02:51:49;14.00;99.90
30097;DHT22;16915;51.466;3.610;2022-07-17T02:54:20;14.10;99.90
30097;DHT22;16915;51.466;3.610;2022-07-17T02:56:53;14.00;99.90
30097;DHT22;16915;51.466;3.610;2022-07-17T02:59:20;13.80;99.90
30097;DHT22;16915;51.466;3.610;2022-07-17T03:01:46;13.90;99.90
30097;DHT22;16915;51.466;3.610;2022-07-17T03:04:17;13.90;99.90
30097;DHT22;16915;51.466;3.610;2022-07-17T03:06:43;13.90;99.90
30097;DHT22;16915;51.466;3.610;2022-07-17T03:09:09;13.90;99.90
30097;DHT22;16915;51.466;3.610;2022-07-17T03:11:36;13.90;99.90
30097;DHT22;16915;51.466;3.610;2022-07-17T03:14:06;13.80;99.90
30097;DHT22;16915;51.466;3.610;2022-07-17T03:16:33;13.90;99.90
30097;DHT22;16915;51.466;3.610;2022-07-17T03:19:00;13.90;99.90
30097;DHT22;16915;51.466;3.610;2022-07-17T03:21:28;13.80;99.90
30097;DHT22;16915;51.466;3.610;2022-07-17T03:23:56;13.80;99.90
30097;DHT22;16915;51.466;3.610;2022-07-17T03:29:18;13.80;99.90
30097;DHT22;16915;51.466;3.610;2022-07-17T03:31:47;13.80;99.90
30097;DHT22;16915;51.466;3.610;2022-07-17T03:34:28;13.80;99.90
30097;DHT22;16915;51.466;3.610;2022-07-17T03:36:54;13.70;99.90
30097;DHT22;16915;51.466;3.610;2022-07-17T03:39:20;13.70;99.90
30097;DHT22;16915;51.466;3.610;2022-07-17T03:41:45;13.70;99.90
30097;DHT22;16915;51.466;3.610;2022-07-17T03:44:13;13.70;99.90
30097;DHT22;16915;51.466;3.610;2022-07-17T03:46:41;13.70;99.90
30097;DHT22;16915;51.466;3.610;2022-07-17T03:49:10;13.60;99.90
30097;DHT22;16915;51.466;3.610;2022-07-17T03:51:36;13.60;99.90
30097;DHT22;16915;51.466;3.610;2022-07-17T03:54:06;13.60;99.90
30097;DHT22;16915;51.466;3.610;2022-07-17T03:56:31;13.60;99.90
30097;DHT22;16915;51.466;3.610;2022-07-17T03:58:58;13.60;99.90
30097;DHT22;16915;51.466;3.610;2022-07-17T04:01:25;13.60;99.90
30097;DHT22;16915;51.466;3.610;2022-07-17T04:03:52;13.60;99.90
30097;DHT22;16915;51.466;3.610;2022-07-17T04:06:21;13.50;99.90
30097;DHT22;16915;51.466;3.610;2022-07-17T04:08:46;13.50;99.90
30097;DHT22;16915;51.466;3.610;2022-07-17T04:11:15;13.60;99.90
30097;DHT22;16915;51.466;3.610;2022-07-17T04:13:41;13.60;99.90
30097;DHT22;16915;51.466;3.610;2022-07-17T04:16:08;13.60;99.90
30097;DHT22;16915;51.466;3.610;2022-07-17T04:18:35;13.60;99.90
30097;DHT22;16915;51.466;3.610;2022-07-17T04:21:06;13.70;99.90
30097;DHT22;16915;51.466;3.610;2022-07-17T04:23:35;13.70;99.90
30097;DHT22;16915;51.466;3.610;2022-07-17T04:26:02;13.80;99.90
30097;DHT22;16915;51.466;3.610;2022-07-17T04:28:28;13.80;99.90
30097;DHT22;16915;51.466;3.610;2022-07-17T04:30:58;13.80;99.90
30097;DHT22;16915;51.466;3.610;2022-07-17T04:33:34;13.90;99.90
30097;DHT22;16915;51.466;3.610;2022-07-17T04:36:02;13.90;99.90
30097;DHT22;16915;51.466;3.610;2022-07-17T04:38:28;13.90;99.90
30097;DHT22;16915;51.466;3.610;2022-07-17T04:40:54;14.00;99.90
30097;DHT22;16915;51.466;3.610;2022-07-17T04:46:37;14.20;99.90
30097;DHT22;16915;51.466;3.610;2022-07-17T04:49:03;14.30;99.90
30097;DHT22;16915;51.466;3.610;2022-07-17T04:51:34;14.30;99.90
30097;DHT22;16915;51.466;3.610;2022-07-17T04:54:00;14.50;99.90
30097;DHT22;16915;51.466;3.610;2022-07-17T04:56:28;14.50;99.90
30097;DHT22;16915;51.466;3.610;2022-07-17T04:58:56;14.60;99.90
30097;DHT22;16915;51.466;3.610;2022-07-17T05:01:26;14.70;99.90
30097;DHT22;16915;51.466;3.610;2022-07-17T05:04:16;14.80;99.90
30097;DHT22;16915;51.466;3.610;2022-07-17T05:06:49;14.90;99.90
30097;DHT22;16915;51.466;3.610;2022-07-17T05:09:22;15.10;99.90
30097;DHT22;16915;51.466;3.610;2022-07-17T05:11:49;15.20;99.90
30097;DHT22;16915;51.466;3.610;2022-07-17T05:14:16;15.30;99.90
30097;DHT22;16915;51.466;3.610;2022-07-17T05:16:41;15.40;99.90
30097;DHT22;16915;51.466;3.610;2022-07-17T05:19:41;15.50;99.90
30097;DHT22;16915;51.466;3.610;2022-07-17T05:32:52;16.20;99.90
30097;DHT22;16915;51.466;3.610;2022-07-17T05:35:45;16.50;99.90
30097;DHT22;16915;51.466;3.610;2022-07-17T06:25:50;19.00;99.90
30097;DHT22;16915;51.466;3.610;2022-07-17T06:31:28;18.90;99.90
30097;DHT22;16915;51.466;3.610;2022-07-17T06:33:54;19.00;99.90
30097;DHT22;16915;51.466;3.610;2022-07-17T06:36:19;19.10;99.90
30097;DHT22;16915;51.466;3.610;2022-07-17T07:45:44;20.40;99.90
30097;DHT22;16915;51.466;3.610;2022-07-17T07:51:46;20.20;99.90
30097;DHT22;16915;51.466;3.610;2022-07-17T08:00:47;20.60;99.90
30097;DHT22;16915;51.466;3.610;2022-07-17T08:03:13;20.70;99.90
30097;DHT22;16915;51.466;3.610;2022-07-17T08:05:39;20.80;99.90
30097;DHT22;16915;51.466;3.610;2022-07-17T08:08:05;21.00;99.90
30097;DHT22;16915;51.466;3.610;2022-07-17T08:10:30;21.10;99.90
30097;DHT22;16915;51.466;3.610;2022-07-17T08:12:56;21.30;99.90
30097;DHT22;16915;51.466;3.610;2022-07-17T08:15:22;21.30;99.90
30097;DHT22;16915;51.466;3.610;2022-07-17T08:17:50;21.60;99.90
30097;DHT22;16915;51.466;3.610;2022-07-17T08:20:17;21.80;99.90
30097;DHT22;16915;51.466;3.610;2022-07-17T08:22:44;21.80;99.90
30097;DHT22;16915;51.466;3.610;2022-07-17T08:25:10;21.90;99.90
30097;DHT22;16915;51.466;3.610;2022-07-17T08:27:40;22.10;99.90
30097;DHT22;16915;51.466;3.610;2022-07-17T08:30:08;22.20;99.90
30097;DHT22;16915;51.466;3.610;2022-07-17T08:32:35;22.30;99.90
30097;DHT22;16915;51.466;3.610;2022-07-17T08:35:01;22.40;99.90
30097;DHT22;16915;51.466;3.610;2022-07-17T08:37:27;22.50;99.90
30097;DHT22;16915;51.466;3.610;2022-07-17T08:39:52;22.40;99.90
30097;DHT22;16915;51.466;3.610;2022-07-17T08:42:18;22.30;99.90
30097;DHT22;16915;51.466;3.610;2022-07-17T08:44:45;22.10;99.90
30097;DHT22;16915;51.466;3.610;2022-07-17T08:47:11;22.00;99.90
30097;DHT22;16915;51.466;3.610;2022-07-17T08:49:45;21.90;99.90
30097;DHT22;16915;51.466;3.610;2022-07-17T08:52:13;21.80;99.90
30097;DHT22;16915;51.466;3.610;2022-07-17T08:54:39;21.90;99.90
30097;DHT22;16915;51.466;3.610;2022-07-17T08:57:04;21.90;99.90
30097;DHT22;16915;51.466;3.610;2022-07-17T08:59:31;22.10;99.90
30097;DHT22;16915;51.466;3.610;2022-07-17T09:01:58;21.90;99.90
30097;DHT22;16915;51.466;3.610;2022-07-17T09:04:24;22.00;99.90
30097;DHT22;16915;51.466;3.610;2022-07-17T09:07:01;22.00;99.90
30097;DHT22;16915;51.466;3.610;2022-07-17T09:09:27;22.00;99.90
30097;DHT22;16915;51.466;3.610;2022-07-17T09:11:54;22.10;99.90
30097;DHT22;16915;51.466;3.610;2022-07-17T09:14:21;22.30;99.90
30097;DHT22;16915;51.466;3.610;2022-07-17T09:16:57;22.50;99.90
30097;DHT22;16915;51.466;3.610;2022-07-17T09:19:44;22.60;99.70
30097;DHT22;16915;51.466;3.610;2022-07-17T09:22:24;22.70;98.90
30097;DHT22;16915;51.466;3.610;2022-07-17T09:24:52;22.70;98.60
30097;DHT22;16915;51.466;3.610;2022-07-17T09:29:59;22.50;99.00
30097;DHT22;16915;51.466;3.610;2022-07-17T09:32:28;22.60;99.50
30097;DHT22;16915;51.466;3.610;2022-07-17T09:34:56;22.60;98.90
30097;DHT22;16915;51.466;3.610;2022-07-17T09:37:23;22.60;98.00
30097;DHT22;16915;51.466;3.610;2022-07-17T09:39:49;22.60;98.60
30097;DHT22;16915;51.466;3.610;2022-07-17T09:42:30;22.60;99.20
30097;DHT22;16915;51.466;3.610;2022-07-17T09:45:00;22.80;99.10
30097;DHT22;16915;51.466;3.610;2022-07-17T09:47:27;22.80;98.50
30097;DHT22;16915;51.466;3.610;2022-07-17T09:49:54;22.70;98.20
30097;DHT22;16915;51.466;3.610;2022-07-17T09:52:23;22.70;98.80
30097;DHT22;16915;51.466;3.610;2022-07-17T09:54:51;22.70;97.40
30097;DHT22;16915;51.466;3.610;2022-07-17T09:57:18;22.70;97.30
30097;DHT22;16915;51.466;3.610;2022-07-17T09:59:45;22.80;96.90
30097;DHT22;16915;51.466;3.610;2022-07-17T10:02:12;23.00;96.80
30097;DHT22;16915;51.466;3.610;2022-07-17T10:04:40;23.10;96.70
30097;DHT22;16915;51.466;3.610;2022-07-17T10:07:05;23.20;96.60
30097;DHT22;16915;51.466;3.610;2022-07-17T10:09:34;23.30;96.60
30097;DHT22;16915;51.466;3.610;2022-07-17T10:12:00;23.40;95.90
30097;DHT22;16915;51.466;3.610;2022-07-17T10:14:27;23.50;95.60
30097;DHT22;16915;51.466;3.610;2022-07-17T10:16:53;23.30;96.50
30097;DHT22;16915;51.466;3.610;2022-07-17T10:19:20;23.60;96.10
30097;DHT22;16915;51.466;3.610;2022-07-17T10:21:57;23.60;95.30
30097;DHT22;16915;51.466;3.610;2022-07-17T10:24:23;23.60;96.30
30097;DHT22;16915;51.466;3.610;2022-07-17T10:26:49;24.00;95.30
30097;DHT22;16915;51.466;3.610;2022-07-17T10:29:36;24.20;94.90
30097;DHT22;16915;51.466;3.610;2022-07-17T10:32:24;24.30;95.20
30097;DHT22;16915;51.466;3.610;2022-07-17T10:34:58;24.50;94.70
30097;DHT22;16915;51.466;3.610;2022-07-17T10:37:31;25.10;95.20
30097;DHT22;16915;51.466;3.610;2022-07-17T10:40:23;25.50;94.00
30097;DHT22;16915;51.466;3.610;2022-07-17T10:42:59;25.90;94.20
30097;DHT22;16915;51.466;3.610;2022-07-17T10:45:35;26.50;91.90
30097;DHT22;16915;51.466;3.610;2022-07-17T10:48:17;26.90;91.80
30097;DHT22;16915;51.466;3.610;2022-07-17T10:56:00;27.20;90.20
30097;DHT22;16915;51.466;3.610;2022-07-17T10:58:35;27.40;88.60
30097;DHT22;16915;51.466;3.610;2022-07-17T11:01:14;27.50;88.20
30097;DHT22;16915;51.466;3.610;2022-07-17T11:03:43;27.50;89.00
30097;DHT22;16915;51.466;3.610;2022-07-17T11:09:12;28.00;87.90
30097;DHT22;16915;51.466;3.610;2022-07-17T11:11:43;28.50;84.70
30097;DHT22;16915;51.466;3.610;2022-07-17T11:14:15;28.80;86.10
30097;DHT22;16915;51.466;3.610;2022-07-17T11:16:53;28.80;83.30
30097;DHT22;16915;51.466;3.610;2022-07-17T11:19:39;28.30;83.80
30097;DHT22;16915;51.466;3.610;2022-07-17T11:22:06;28.40;84.60
30097;DHT22;16915;51.466;3.610;2022-07-17T11:24:44;28.90;85.00
30097;DHT22;16915;51.466;3.610;2022-07-17T11:27:11;29.40;82.80
30097;DHT22;16915;51.466;3.610;2022-07-17T11:29:39;29.60;79.10
30097;DHT22;16915;51.466;3.610;2022-07-17T11:32:06;29.50;81.60
30097;DHT22;16915;51.466;3.610;2022-07-17T11:34:31;30.10;80.40
30097;DHT22;16915;51.466;3.610;2022-07-17T11:37:02;30.40;77.20
30097;DHT22;16915;51.466;3.610;2022-07-17T11:39:37;30.70;79.90
30097;DHT22;16915;51.466;3.610;2022-07-17T11:42:07;31.00;78.90
30097;DHT22;16915;51.466;3.610;2022-07-17T11:44:34;31.50;74.30
30097;DHT22;16915;51.466;3.610;2022-07-17T11:46:59;31.80;76.80
30097;DHT22;16915;51.466;3.610;2022-07-17T11:49:27;32.50;77.60
30097;DHT22;16915;51.466;3.610;2022-07-17T11:51:59;33.00;73.10
30097;DHT22;16915;51.466;3.610;2022-07-17T11:54:27;33.10;74.00
30097;DHT22;16915;51.466;3.610;2022-07-17T11:56:54;33.40;72.90
30097;DHT22;16915;51.466;3.610;2022-07-17T11:59:26;33.80;69.80
30097;DHT22;16915;51.466;3.610;2022-07-17T12:01:53;33.60;68.50
30097;DHT22;16915;51.466;3.610;2022-07-17T12:04:18;33.40;67.50
30097;DHT22;16915;51.466;3.610;2022-07-17T12:06:45;33.40;69.70
30097;DHT22;16915;51.466;3.610;2022-07-17T12:09:11;33.80;71.10
30097;DHT22;16915;51.466;3.610;2022-07-17T12:11:48;33.90;67.00
30097;DHT22;16915;51.466;3.610;2022-07-17T12:14:14;33.90;66.80
30097;DHT22;16915;51.466;3.610;2022-07-17T12:16:39;34.10;67.20
30097;DHT22;16915;51.466;3.610;2022-07-17T12:19:08;34.30;65.80
30097;DHT22;16915;51.466;3.610;2022-07-17T12:24:21;34.30;63.80
30097;DHT22;16915;51.466;3.610;2022-07-17T12:26:50;33.90;64.40
30097;DHT22;16915;51.466;3.610;2022-07-17T12:29:16;33.80;67.50
30097;DHT22;16915;51.466;3.610;2022-07-17T12:31:41;34.30;65.30
30097;DHT22;16915;51.466;3.610;2022-07-17T12:34:07;35.00;66.40
30097;DHT22;16915;51.466;3.610;2022-07-17T12:36:32;35.90;65.30
30097;DHT22;16915;51.466;3.610;2022-07-17T12:38:58;36.60;61.80
30097;DHT22;16915;51.466;3.610;2022-07-17T12:41:24;37.00;63.20
30097;DHT22;16915;51.466;3.610;2022-07-17T12:43:49;37.00;62.00
30097;DHT22;16915;51.466;3.610;2022-07-17T12:46:15;37.20;61.70
30097;DHT22;16915;51.466;3.610;2022-07-17T12:48:48;37.50;58.60
30097;DHT22;16915;51.466;3.610;2022-07-17T12:51:14;37.80;62.00
30097;DHT22;16915;51.466;3.610;2022-07-17T12:53:44;38.30;61.40
30097;DHT22;16915;51.466;3.610;2022-07-17T12:56:10;38.00;57.00
30097;DHT22;16915;51.466;3.610;2022-07-17T12:58:36;38.10;59.50
30097;DHT22;16915;51.466;3.610;2022-07-17T13:01:04;37.70;56.80
30097;DHT22;16915;51.466;3.610;2022-07-17T13:03:31;36.90;58.80
30097;DHT22;16915;51.466;3.610;2022-07-17T13:05:56;37.10;60.50
30097;DHT22;16915;51.466;3.610;2022-07-17T13:08:22;37.60;58.70
30097;DHT22;16915;51.466;3.610;2022-07-17T13:10:48;37.80;56.70
30097;DHT22;16915;51.466;3.610;2022-07-17T13:13:13;37.90;56.10
30097;DHT22;16915;51.466;3.610;2022-07-17T13:15:39;37.50;57.00
30097;DHT22;16915;51.466;3.610;2022-07-17T13:18:05;37.80;56.90
30097;DHT22;16915;51.466;3.610;2022-07-17T13:20:31;38.10;55.30
30097;DHT22;16915;51.466;3.610;2022-07-17T13:22:57;38.30;55.70
30097;DHT22;16915;51.466;3.610;2022-07-17T13:25:23;38.10;54.40
30097;DHT22;16915;51.466;3.610;2022-07-17T13:27:48;38.20;55.50
30097;DHT22;16915;51.466;3.610;2022-07-17T13:30:14;38.10;54.60
30097;DHT22;16915;51.466;3.610;2022-07-17T13:32:39;38.20;54.20
30097;DHT22;16915;51.466;3.610;2022-07-17T13:35:06;38.20;54.70
30097;DHT22;16915;51.466;3.610;2022-07-17T13:37:33;38.60;54.50
30097;DHT22;16915;51.466;3.610;2022-07-17T13:39:58;38.40;53.10
30097;DHT22;16915;51.466;3.610;2022-07-17T13:42:24;38.30;53.00
30097;DHT22;16915;51.466;3.610;2022-07-17T13:44:50;38.50;54.20
30097;DHT22;16915;51.466;3.610;2022-07-17T13:47:15;38.70;53.60
30097;DHT22;16915;51.466;3.610;2022-07-17T13:49:41;39.20;51.90
30097;DHT22;16915;51.466;3.610;2022-07-17T13:52:07;39.50;53.40
30097;DHT22;16915;51.466;3.610;2022-07-17T13:54:32;39.90;53.70
30097;DHT22;16915;51.466;3.610;2022-07-17T13:56:58;40.70;54.50
30097;DHT22;16915;51.466;3.610;2022-07-17T13:59:25;39.70;53.90
30097;DHT22;16915;51.466;3.610;2022-07-17T14:01:51;39.70;52.70
30097;DHT22;16915;51.466;3.610;2022-07-17T14:04:17;40.00;54.60
30097;DHT22;16915;51.466;3.610;2022-07-17T14:06:42;40.50;53.50
30097;DHT22;16915;51.466;3.610;2022-07-17T14:09:08;39.30;51.80
30097;DHT22;16915;51.466;3.610;2022-07-17T14:11:35;38.40;52.70
30097;DHT22;16915;51.466;3.610;2022-07-17T14:14:01;38.40;54.40
30097;DHT22;16915;51.466;3.610;2022-07-17T14:16:27;38.70;54.00
30097;DHT22;16915;51.466;3.610;2022-07-17T14:18:52;39.50;54.10
30097;DHT22;16915;51.466;3.610;2022-07-17T14:21:26;39.90;53.30
30097;DHT22;16915;51.466;3.610;2022-07-17T14:23:51;40.20;53.60
30097;DHT22;16915;51.466;3.610;2022-07-17T14:26:17;40.50;53.80
30097;DHT22;16915;51.466;3.610;2022-07-17T14:28:43;41.30;52.50
30097;DHT22;16915;51.466;3.610;2022-07-17T14:31:08;41.30;51.70
30097;DHT22;16915;51.466;3.610;2022-07-17T14:33:34;41.20;51.70
30097;DHT22;16915;51.466;3.610;2022-07-17T14:36:12;41.10;51.60
30097;DHT22;16915;51.466;3.610;2022-07-17T14:38:38;40.60;50.10
30097;DHT22;16915;51.466;3.610;2022-07-17T14:41:03;40.70;51.70
30097;DHT22;16915;51.466;3.610;2022-07-17T14:43:29;40.00;52.00
30097;DHT22;16915;51.466;3.610;2022-07-17T14:45:55;38.90;53.10
30097;DHT22;16915;51.466;3.610;2022-07-17T14:48:20;38.10;52.10
30097;DHT22;16915;51.466;3.610;2022-07-17T14:50:46;38.30;53.70
30097;DHT22;16915;51.466;3.610;2022-07-17T14:53:12;38.80;52.50
30097;DHT22;16915;51.466;3.610;2022-07-17T14:55:38;38.90;53.70
30097;DHT22;16915;51.466;3.610;2022-07-17T14:58:04;38.30;52.50
30097;DHT22;16915;51.466;3.610;2022-07-17T15:00:29;38.60;52.10
30097;DHT22;16915;51.466;3.610;2022-07-17T15:02:55;37.90;51.60
30097;DHT22;16915;51.466;3.610;2022-07-17T15:05:21;38.20;53.80
30097;DHT22;16915;51.466;3.610;2022-07-17T15:07:46;38.00;51.40
30097;DHT22;16915;51.466;3.610;2022-07-17T15:10:12;37.00;51.70
30097;DHT22;16915;51.466;3.610;2022-07-17T15:12:38;36.20;53.20
30097;DHT22;16915;51.466;3.610;2022-07-17T15:15:04;35.50;53.20
30097;DHT22;16915;51.466;3.610;2022-07-17T15:17:29;35.00;53.30
30097;DHT22;16915;51.466;3.610;2022-07-17T15:19:55;35.50;55.20
30097;DHT22;16915;51.466;3.610;2022-07-17T15:22:21;35.40;53.80
30097;DHT22;16915;51.466;3.610;2022-07-17T15:24:46;36.50;55.30
30097;DHT22;16915;51.466;3.610;2022-07-17T15:27:12;37.70;50.10
30097;DHT22;16915;51.466;3.610;2022-07-17T15:29:38;37.50;50.40
30097;DHT22;16915;51.466;3.610;2022-07-17T15:32:04;36.60;51.70
30097;DHT22;16915;51.466;3.610;2022-07-17T15:34:30;36.20;52.00
30097;DHT22;16915;51.466;3.610;2022-07-17T15:36:56;36.20;53.50
30097;DHT22;16915;51.466;3.610;2022-07-17T15:39:21;36.10;52.00
30097;DHT22;16915;51.466;3.610;2022-07-17T15:41:47;36.40;53.10
30097;DHT22;16915;51.466;3.610;2022-07-17T15:44:13;37.20;52.20
30097;DHT22;16915;51.466;3.610;2022-07-17T15:46:45;37.90;50.60
30097;DHT22;16915;51.466;3.610;2022-07-17T15:49:10;38.30;50.50
30097;DHT22;16915;51.466;3.610;2022-07-17T15:51:37;38.80;51.50
30097;DHT22;16915;51.466;3.610;2022-07-17T15:54:03;39.00;51.30
30097;DHT22;16915;51.466;3.610;2022-07-17T15:56:34;39.50;51.40
30097;DHT22;16915;51.466;3.610;2022-07-17T15:59:00;40.20;50.90
30097;DHT22;16915;51.466;3.610;2022-07-17T16:01:26;40.40;48.90
30097;DHT22;16915;51.466;3.610;2022-07-17T16:03:52;40.40;49.30
30097;DHT22;16915;51.466;3.610;2022-07-17T16:06:18;40.50;48.90
30097;DHT22;16915;51.466;3.610;2022-07-17T16:08:43;40.10;47.70
30097;DHT22;16915;51.466;3.610;2022-07-17T16:11:09;39.80;48.40
30097;DHT22;16915;51.466;3.610;2022-07-17T16:13:35;39.50;48.60
30097;DHT22;16915;51.466;3.610;2022-07-17T16:16:00;39.50;49.40
30097;DHT22;16915;51.466;3.610;2022-07-17T16:18:26;39.70;49.30
30097;DHT22;16915;51.466;3.610;2022-07-17T16:20:52;39.50;49.70
30097;DHT22;16915;51.466;3.610;2022-07-17T16:23:17;39.30;49.30
30097;DHT22;16915;51.466;3.610;2022-07-17T16:25:43;39.20;50.10
30097;DHT22;16915;51.466;3.610;2022-07-17T16:28:09;38.80;49.30
30097;DHT22;16915;51.466;3.610;2022-07-17T16:30:35;38.50;49.60
30097;DHT22;16915;51.466;3.610;2022-07-17T16:33:01;38.40;50.00
30097;DHT22;16915;51.466;3.610;2022-07-17T16:35:26;38.20;48.80
30097;DHT22;16915;51.466;3.610;2022-07-17T16:37:52;38.10;49.80
30097;DHT22;16915;51.466;3.610;2022-07-17T16:40:18;37.30;49.90
30097;DHT22;16915;51.466;3.610;2022-07-17T16:42:43;36.70;50.60
30097;DHT22;16915;51.466;3.610;2022-07-17T16:45:09;36.90;50.30
30097;DHT22;16915;51.466;3.610;2022-07-17T16:47:35;36.10;50.80
30097;DHT22;16915;51.466;3.610;2022-07-17T16:50:00;35.00;51.80
30097;DHT22;16915;51.466;3.610;2022-07-17T16:52:26;33.80;52.70
30097;DHT22;16915;51.466;3.610;2022-07-17T16:54:55;32.60;52.70
30097;DHT22;16915;51.466;3.610;2022-07-17T16:57:20;31.80;54.20
30097;DHT22;16915;51.466;3.610;2022-07-17T16:59:46;31.00;54.30
30097;DHT22;16915;51.466;3.610;2022-07-17T17:02:12;30.50;54.90
30097;DHT22;16915;51.466;3.610;2022-07-17T17:04:38;30.30;55.90
30097;DHT22;16915;51.466;3.610;2022-07-17T17:07:04;30.30;56.80
30097;DHT22;16915;51.466;3.610;2022-07-17T17:09:30;30.90;55.80
30097;DHT22;16915;51.466;3.610;2022-07-17T17:11:57;31.30;55.60
30097;DHT22;16915;51.466;3.610;2022-07-17T17:14:23;31.60;55.40
30097;DHT22;16915;51.466;3.610;2022-07-17T17:16:49;31.50;55.80
30097;DHT22;16915;51.466;3.610;2022-07-17T17:19:15;31.10;55.60
30097;DHT22;16915;51.466;3.610;2022-07-17T17:21:41;30.60;56.80
30097;DHT22;16915;51.466;3.610;2022-07-17T17:24:06;30.10;57.10
30097;DHT22;16915;51.466;3.610;2022-07-17T17:26:32;29.50;56.40
30097;DHT22;16915;51.466;3.610;2022-07-17T17:28:58;29.10;57.40
30097;DHT22;16915;51.466;3.610;2022-07-17T17:31:23;28.90;58.70
30097;DHT22;16915;51.466;3.610;2022-07-17T17:33:49;28.70;59.40
30097;DHT22;16915;51.466;3.610;2022-07-17T17:36:15;28.50;59.50
30097;DHT22;16915;51.466;3.610;2022-07-17T17:38:40;28.40;60.30
30097;DHT22;16915;51.466;3.610;2022-07-17T17:41:06;28.30;60.10
30097;DHT22;16915;51.466;3.610;2022-07-17T17:43:32;28.20;59.90
30097;DHT22;16915;51.466;3.610;2022-07-17T17:45:59;28.10;59.40
30097;DHT22;16915;51.466;3.610;2022-07-17T17:48:25;27.80;59.30
30097;DHT22;16915;51.466;3.610;2022-07-17T17:50:51;27.80;60.10
30097;DHT22;16915;51.466;3.610;2022-07-17T17:53:17;27.70;59.00
30097;DHT22;16915;51.466;3.610;2022-07-17T17:55:43;27.60;58.90
30097;DHT22;16915;51.466;3.610;2022-07-17T17:58:09;27.60;59.00
30097;DHT22;16915;51.466;3.610;2022-07-17T18:00:34;27.60;59.50
30097;DHT22;16915;51.466;3.610;2022-07-17T18:03:00;27.60;59.90
30097;DHT22;16915;51.466;3.610;2022-07-17T18:05:26;27.50;59.40
30097;DHT22;16915;51.466;3.610;2022-07-17T18:08:12;27.40;59.70
30097;DHT22;16915;51.466;3.610;2022-07-17T18:10:39;27.40;59.90
30097;DHT22;16915;51.466;3.610;2022-07-17T18:13:05;27.30;60.20
30097;DHT22;16915;51.466;3.610;2022-07-17T18:15:31;27.20;59.70